Comunidad El Canon, Puerto Rico
Current Conditions -  °F | °C
As of 11:50 AM on Wednesday 22 Oct 2014 (Local Time) from TJBQ Reporting Station
Clear Clear  
Wind Chill: 88°   Ceiling: Unl
Heat Index: 96°   Visibility: 10mi
Dew Point: 73°   Wind: 14mph
Humidity: 62%   Direction: 80°E
Pressure: 29.96"   Gusts: 20mph
Location:  18.4951°N, 67.0273°W
Report Text: TJBQ 221550Z 08012G17KT 10SM SKC 31/23 A2996 RMK RWY 8 ATIS P
Loading
Personal Weather Stations






























Interactive Weather Map
Tropical Storm Tracking
New forecast layout! Learn more

10-Day Weather Forecast

Advertisements
Track Severe Weather on mobile